createdAt,value
2022-09-14T00:00:46.343Z,30.03
2022-09-14T00:03:36.096Z,30.09
2022-09-14T00:06:25.137Z,30.02
2022-09-14T00:09:08.403Z,30.03
2022-09-14T00:11:57.112Z,30.11
2022-09-14T00:14:48.070Z,30.12
2022-09-14T00:17:36.414Z,30.15
2022-09-14T00:20:19.132Z,30.14
2022-09-14T00:23:01.859Z,30.12
2022-09-14T00:25:51.100Z,30.06
2022-09-14T00:28:37.987Z,30.03
2022-09-14T00:31:28.151Z,30.12
2022-09-14T00:34:22.129Z,30.05
2022-09-14T00:37:12.106Z,30.01
2022-09-14T00:40:01.589Z,30.01
2022-09-14T00:42:44.177Z,30.02
2022-09-14T00:45:34.142Z,30.15
2022-09-14T00:48:24.141Z,30.02
2022-09-14T00:51:13.159Z,30.10
2022-09-14T00:53:56.477Z,30.04
2022-09-14T00:56:45.153Z,30.05
2022-09-14T00:59:39.141Z,30.14
2022-09-14T01:02:31.201Z,30.08
2022-09-14T01:05:21.109Z,30.12
2022-09-14T01:08:10.015Z,30.24
2022-09-14T01:11:14.151Z,30.20
2022-09-14T01:14:16.103Z,30.18
2022-09-14T01:17:11.105Z,30.21
2022-09-14T01:19:58.597Z,30.30
2022-09-14T01:23:01.121Z,30.34
2022-09-14T01:26:05.099Z,30.37
2022-09-14T01:29:07.477Z,30.36
2022-09-14T01:32:31.095Z,30.43
2022-09-14T01:35:20.534Z,30.48
2022-09-14T01:38:09.105Z,30.52
2022-09-14T01:40:55.455Z,30.49
2022-09-14T01:44:05.144Z,30.47
2022-09-14T01:46:58.464Z,30.48
2022-09-14T01:49:53.837Z,30.57
2022-09-14T01:52:46.578Z,30.61
2022-09-14T01:56:09.015Z,30.66
2022-09-14T01:59:26.407Z,30.69
2022-09-14T02:02:46.149Z,30.73
2022-09-14T02:05:43.107Z,30.78
2022-09-14T02:08:29.795Z,30.83
2022-09-14T02:11:19.180Z,30.80
2022-09-14T02:14:15.199Z,30.95
2022-09-14T02:17:13.159Z,31.19
2022-09-14T02:20:01.308Z,31.30
2022-09-14T02:22:50.080Z,31.33
2022-09-14T02:25:42.304Z,31.57
2022-09-14T02:28:27.192Z,31.71
2022-09-14T02:31:27.640Z,31.69
2022-09-14T02:34:24.146Z,31.67
2022-09-14T02:37:23.503Z,31.82
2022-09-14T02:40:30.221Z,31.87
2022-09-14T02:43:30.304Z,31.64
2022-09-14T02:46:28.147Z,32.00
2022-09-14T02:49:49.075Z,32.31
2022-09-14T02:52:52.171Z,32.36
2022-09-14T02:55:39.665Z,32.46
2022-09-14T02:58:29.148Z,32.41
2022-09-14T03:01:21.227Z,32.35
2022-09-14T03:04:03.434Z,32.28
2022-09-14T03:06:52.146Z,32.74
2022-09-14T03:09:34.389Z,32.72
2022-09-14T03:12:23.081Z,32.80
2022-09-14T03:15:18.932Z,32.66
2022-09-14T03:18:15.119Z,32.95
2022-09-14T03:21:17.431Z,32.94
2022-09-14T03:24:03.147Z,33.02
2022-09-14T03:26:53.308Z,33.22
2022-09-14T03:29:36.119Z,33.34
2022-09-14T03:32:25.508Z,33.03
2022-09-14T03:35:08.140Z,33.09
2022-09-14T03:37:50.349Z,33.19
2022-09-14T03:40:39.119Z,33.25
2022-09-14T03:43:28.852Z,33.15
2022-09-14T03:46:27.589Z,33.30
2022-09-14T03:49:16.104Z,33.45
2022-09-14T03:51:59.873Z,33.31
2022-09-14T03:54:49.141Z,33.31
2022-09-14T03:57:31.503Z,33.34
2022-09-14T04:00:21.148Z,33.61
2022-09-14T04:03:04.343Z,33.52
2022-09-14T04:06:04.158Z,33.59
2022-09-14T04:08:53.049Z,33.86
2022-09-14T04:11:43.157Z,33.45
2022-09-14T04:14:32.962Z,33.29
2022-09-14T04:17:30.004Z,33.71
2022-09-14T04:20:29.080Z,34.08
2022-09-14T04:23:21.859Z,34.22
2022-09-14T04:26:04.407Z,33.98
2022-09-14T04:28:54.089Z,34.28
2022-09-14T04:31:36.513Z,34.33
2022-09-14T04:34:27.107Z,34.17
2022-09-14T04:37:13.948Z,34.46
2022-09-14T04:40:04.134Z,34.41
2022-09-14T04:42:46.483Z,34.63
2022-09-14T04:45:35.148Z,34.40
2022-09-14T04:48:17.722Z,35.01
2022-09-14T04:51:10.147Z,34.64
2022-09-14T04:53:59.871Z,35.58
2022-09-14T04:56:50.164Z,36.05
2022-09-14T04:59:35.734Z,36.57
2022-09-14T05:02:27.219Z,36.56
2022-09-14T05:05:16.187Z,36.31
2022-09-14T05:08:05.178Z,36.49
2022-09-14T05:10:48.181Z,36.15
2022-09-14T05:13:40.170Z,36.24
2022-09-14T05:16:25.586Z,36.64
2022-09-14T05:19:23.066Z,36.15
2022-09-14T05:22:14.697Z,36.16
2022-09-14T05:25:03.154Z,36.49
2022-09-14T05:27:47.983Z,36.21
2022-09-14T05:30:38.707Z,35.58
2022-09-14T05:36:25.547Z,35.11
2022-09-14T05:39:23.286Z,35.00
2022-09-14T05:42:06.500Z,34.50
2022-09-14T05:44:57.172Z,34.39
2022-09-14T05:48:04.807Z,34.46
2022-09-14T05:50:56.708Z,34.05
2022-09-14T05:53:49.216Z,34.05
2022-09-14T05:56:35.900Z,34.02
2022-09-14T05:59:29.064Z,33.91
2022-09-14T06:02:24.968Z,33.44
2022-09-14T06:05:09.753Z,33.47
2022-09-14T06:08:02.173Z,33.57
2022-09-14T06:10:44.549Z,33.31
2022-09-14T06:13:50.174Z,33.51
2022-09-14T06:16:44.536Z,33.30
2022-09-14T06:19:34.209Z,33.52
2022-09-14T06:22:16.483Z,33.48
2022-09-14T06:25:06.176Z,33.66
2022-09-14T06:27:51.509Z,33.62
2022-09-14T06:30:45.917Z,33.81
2022-09-14T06:33:31.220Z,33.78
2022-09-14T06:36:22.070Z,33.87
2022-09-14T06:39:09.563Z,33.87
2022-09-14T06:42:00.199Z,34.05
2022-09-14T06:44:47.243Z,34.12
2022-09-14T06:47:41.087Z,34.61
2022-09-14T06:50:26.589Z,34.28
2022-09-14T06:53:18.192Z,34.50
2022-09-14T06:56:01.619Z,34.52
2022-09-14T06:58:51.252Z,34.28
2022-09-14T07:01:34.661Z,34.51
2022-09-14T07:04:28.817Z,34.74
2022-09-14T07:07:11.534Z,34.96
2022-09-14T07:10:00.128Z,34.90
2022-09-14T07:12:42.420Z,34.86
2022-09-14T07:16:06.970Z,34.68
2022-09-14T07:18:57.544Z,34.95
2022-09-14T07:22:07.391Z,35.46
2022-09-14T07:25:03.261Z,35.56
2022-09-14T07:27:53.509Z,35.35
2022-09-14T07:30:45.727Z,35.60
2022-09-14T07:33:29.627Z,35.70
2022-09-14T07:36:24.442Z,35.88
2022-09-14T07:39:12.944Z,35.69
2022-09-14T07:42:08.956Z,35.84
2022-09-14T07:44:55.408Z,35.75
2022-09-14T07:47:47.479Z,35.98
2022-09-14T07:50:38.565Z,35.81
2022-09-14T07:53:29.083Z,36.04
2022-09-14T07:56:14.657Z,35.91
2022-09-14T07:59:30.783Z,35.74
2022-09-14T08:02:21.230Z,35.46
2022-09-14T08:05:04.369Z,35.60
2022-09-14T08:07:56.853Z,35.58
2022-09-14T08:10:39.431Z,35.54
2022-09-14T08:13:30.204Z,35.80
2022-09-14T08:16:23.290Z,35.98
2022-09-14T08:19:09.036Z,35.95
2022-09-14T08:22:00.732Z,35.41
2022-09-14T08:25:01.097Z,35.44
2022-09-14T08:27:53.085Z,35.19
2022-09-14T08:30:35.715Z,35.44
2022-09-14T08:33:25.518Z,35.58
2022-09-14T08:36:14.918Z,34.98
2022-09-14T08:39:03.507Z,34.98
2022-09-14T08:42:02.208Z,34.96
2022-09-14T08:45:14.383Z,35.02
2022-09-14T08:47:58.964Z,35.27
2022-09-14T08:50:44.215Z,35.19
2022-09-14T08:53:35.248Z,34.79
2022-09-14T08:56:33.187Z,35.12
2022-09-14T08:59:54.909Z,35.21
2022-09-14T09:03:38.887Z,34.89
2022-09-14T09:06:55.004Z,34.85
2022-09-14T09:10:00.518Z,34.86
2022-09-14T09:12:53.171Z,34.93
2022-09-14T09:16:03.255Z,35.10
2022-09-14T09:19:05.916Z,35.21
2022-09-14T09:21:50.556Z,34.65
2022-09-14T09:25:00.035Z,35.04
2022-09-14T09:27:42.557Z,34.74
2022-09-14T09:30:32.176Z,34.97
2022-09-14T09:33:27.301Z,34.95
2022-09-14T09:36:30.188Z,35.05
2022-09-14T09:39:13.385Z,35.17
2022-09-14T09:42:21.174Z,35.34
2022-09-14T09:45:07.041Z,35.14
2022-09-14T09:47:57.174Z,34.56
2022-09-14T09:50:51.309Z,34.75
2022-09-14T09:53:40.168Z,34.63
2022-09-14T09:56:36.550Z,35.07
2022-09-14T09:59:43.141Z,35.00
2022-09-14T10:02:40.558Z,34.99
2022-09-14T10:05:22.935Z,34.83
2022-09-14T10:08:23.087Z,34.59
2022-09-14T10:11:05.668Z,34.58
2022-09-14T10:13:56.218Z,34.54
2022-09-14T10:16:49.487Z,34.50
2022-09-14T10:19:40.170Z,34.42
2022-09-14T10:22:42.411Z,34.25
2022-09-14T10:25:41.673Z,34.10
2022-09-14T10:28:46.092Z,34.30
2022-09-14T10:31:32.990Z,34.45
2022-09-14T10:34:33.178Z,34.25
2022-09-14T10:37:37.132Z,34.22
2022-09-14T10:40:24.286Z,34.10
2022-09-14T10:43:46.180Z,33.97
2022-09-14T10:47:19.095Z,33.73
2022-09-14T10:50:37.943Z,33.46
2022-09-14T10:53:42.190Z,33.69
2022-09-14T10:56:49.066Z,33.68
2022-09-14T10:59:40.165Z,33.61
2022-09-14T11:02:54.287Z,33.54
2022-09-14T11:05:44.380Z,33.58
2022-09-14T11:08:45.170Z,33.46
2022-09-14T11:11:47.461Z,33.58
2022-09-14T11:14:49.193Z,33.63
2022-09-14T11:17:50.168Z,33.73
2022-09-14T11:21:09.520Z,33.77
2022-09-14T11:24:06.185Z,33.86
2022-09-14T11:27:09.946Z,33.90
2022-09-14T11:30:37.162Z,33.83
2022-09-14T11:33:56.502Z,33.79
2022-09-14T11:36:56.146Z,33.78
2022-09-14T11:39:51.140Z,33.74
2022-09-14T11:43:16.912Z,33.87
2022-09-14T11:46:14.113Z,33.89
2022-09-14T11:49:30.084Z,33.79
2022-09-14T11:52:21.959Z,33.96
2022-09-14T11:55:12.157Z,34.17
2022-09-14T11:58:05.198Z,34.19
2022-09-14T12:00:52.480Z,34.29
2022-09-14T12:04:25.163Z,34.36
2022-09-14T12:07:08.535Z,34.27
2022-09-14T12:09:59.156Z,34.33
2022-09-14T12:12:46.458Z,34.37
2022-09-14T12:15:37.241Z,34.40
2022-09-14T12:18:20.565Z,34.11
2022-09-14T12:21:26.143Z,34.20
2022-09-14T12:24:23.526Z,34.27
2022-09-14T12:27:29.191Z,34.42
2022-09-14T12:30:52.237Z,34.07
2022-09-14T12:33:34.412Z,34.04
2022-09-14T12:36:52.156Z,34.21
2022-09-14T12:39:37.784Z,34.32
2022-09-14T12:42:42.181Z,34.12
2022-09-14T12:45:51.247Z,34.20
2022-09-14T12:49:03.184Z,34.04
2022-09-14T12:51:59.184Z,33.99
2022-09-14T12:54:52.562Z,33.92
2022-09-14T12:58:11.173Z,33.70
2022-09-14T13:01:22.199Z,33.77
2022-09-14T13:04:20.217Z,33.41
2022-09-14T13:07:06.905Z,33.64
2022-09-14T13:09:54.517Z,33.59
2022-09-14T13:13:03.972Z,33.41
2022-09-14T13:16:12.111Z,33.27
2022-09-14T13:18:56.215Z,33.20
2022-09-14T13:21:58.466Z,33.11
2022-09-14T13:24:51.536Z,33.05
2022-09-14T13:27:46.082Z,32.96
2022-09-14T13:30:47.945Z,32.90
2022-09-14T13:33:34.581Z,32.85
2022-09-14T13:36:23.172Z,32.86
2022-09-14T13:39:33.069Z,32.81
2022-09-14T13:42:25.215Z,32.76
2022-09-14T13:45:30.011Z,32.68
2022-09-14T13:48:24.140Z,32.70
2022-09-14T13:51:10.599Z,32.64
2022-09-14T13:54:06.163Z,32.59
2022-09-14T13:56:55.171Z,32.57
2022-09-14T13:59:38.563Z,32.53
2022-09-14T14:02:31.181Z,32.53
2022-09-14T14:05:38.187Z,32.49
2022-09-14T14:08:55.671Z,32.42
2022-09-14T14:11:54.882Z,32.37
2022-09-14T14:14:46.095Z,32.43
2022-09-14T14:17:47.188Z,32.50
2022-09-14T14:20:47.164Z,32.50
2022-09-14T14:23:30.678Z,32.42
2022-09-14T14:26:49.707Z,32.44
2022-09-14T14:29:46.590Z,32.35
2022-09-14T14:32:36.173Z,32.29
2022-09-14T14:35:28.504Z,32.35
2022-09-14T14:38:20.169Z,32.31
2022-09-14T14:41:04.596Z,32.31
2022-09-14T14:43:59.715Z,32.26
2022-09-14T14:46:44.961Z,32.21
2022-09-14T14:49:34.214Z,32.17
2022-09-14T14:52:18.495Z,32.13
2022-09-14T14:55:07.069Z,32.10
2022-09-14T14:57:49.622Z,32.10
2022-09-14T15:00:46.122Z,32.05
2022-09-14T15:03:38.658Z,32.03
2022-09-14T15:06:34.035Z,32.00
2022-09-14T15:09:28.299Z,31.98
2022-09-14T15:12:18.153Z,31.94
2022-09-14T15:15:06.363Z,31.90
2022-09-14T15:17:56.952Z,31.88
2022-09-14T15:20:40.444Z,31.85
2022-09-14T15:23:30.427Z,31.89
2022-09-14T15:26:14.042Z,31.86
2022-09-14T15:29:10.184Z,31.84
2022-09-14T15:32:07.098Z,31.80
2022-09-14T15:34:58.235Z,31.76
2022-09-14T15:37:42.952Z,31.76
2022-09-14T15:40:28.789Z,31.74
2022-09-14T15:43:20.580Z,31.71
2022-09-14T15:46:12.252Z,31.68
2022-09-14T15:49:04.863Z,31.67
2022-09-14T15:52:00.069Z,31.61
2022-09-14T15:54:55.187Z,31.58
2022-09-14T15:57:45.154Z,31.57
2022-09-14T16:00:28.949Z,31.55
2022-09-14T16:03:24.812Z,31.51
2022-09-14T16:06:08.492Z,31.50
2022-09-14T16:08:58.180Z,31.54
2022-09-14T16:11:42.486Z,31.48
2022-09-14T16:14:33.072Z,31.51
2022-09-14T16:17:18.490Z,31.44
2022-09-14T16:20:09.058Z,31.35
2022-09-14T16:22:52.653Z,31.37
2022-09-14T16:25:50.178Z,31.32
2022-09-14T16:28:32.508Z,31.38
2022-09-14T16:31:34.124Z,31.34
2022-09-14T16:34:28.189Z,31.36
2022-09-14T16:37:23.822Z,31.26
2022-09-14T16:40:07.252Z,31.25
2022-09-14T16:42:56.160Z,31.16
2022-09-14T16:45:47.197Z,31.17
2022-09-14T16:48:32.432Z,31.22
2022-09-14T16:51:23.193Z,31.19
2022-09-14T16:54:08.142Z,31.20
2022-09-14T16:57:00.142Z,31.23
2022-09-14T16:59:42.616Z,31.13
2022-09-14T17:02:31.108Z,31.18
2022-09-14T17:05:13.552Z,31.13
2022-09-14T17:08:03.720Z,31.16
2022-09-14T17:10:53.176Z,31.11
2022-09-14T17:13:38.846Z,31.09
2022-09-14T17:16:35.258Z,31.05
2022-09-14T17:19:24.187Z,31.06
2022-09-14T17:22:15.654Z,31.01
2022-09-14T17:24:59.175Z,31.01
2022-09-14T17:27:47.481Z,30.95
2022-09-14T17:30:43.497Z,30.94
2022-09-14T17:33:36.845Z,30.89
2022-09-14T17:36:22.120Z,30.92
2022-09-14T17:39:18.636Z,30.96
2022-09-14T17:42:01.211Z,30.91
2022-09-14T17:44:44.749Z,30.96
2022-09-14T17:47:39.151Z,31.02
2022-09-14T17:50:22.192Z,31.09
2022-09-14T17:53:11.267Z,30.82
2022-09-14T17:56:00.469Z,30.74
2022-09-14T17:58:44.100Z,30.87
2022-09-14T18:01:34.141Z,30.82
2022-09-14T18:04:19.605Z,30.92
2022-09-14T18:07:08.062Z,30.84
2022-09-14T18:09:50.669Z,30.85
2022-09-14T18:12:44.041Z,30.72
2022-09-14T18:15:38.195Z,30.90
2022-09-14T18:18:31.967Z,30.88
2022-09-14T18:21:23.147Z,30.77
2022-09-14T18:24:12.744Z,30.77
2022-09-14T18:26:58.092Z,30.82
2022-09-14T18:29:50.114Z,30.73
2022-09-14T18:32:45.131Z,30.66
2022-09-14T18:35:35.497Z,30.59
2022-09-14T18:38:21.104Z,30.62
2022-09-14T18:41:15.916Z,30.63
2022-09-14T18:44:00.923Z,30.60
2022-09-14T18:46:45.435Z,30.57
2022-09-14T18:49:35.159Z,30.49
2022-09-14T18:52:20.906Z,30.49
2022-09-14T18:55:13.645Z,30.37
2022-09-14T18:58:02.122Z,30.39
2022-09-14T19:00:54.265Z,30.02
2022-09-14T19:03:43.709Z,30.25
2022-09-14T19:06:27.109Z,30.42
2022-09-14T19:09:09.545Z,30.28
2022-09-14T19:11:58.129Z,30.32
2022-09-14T19:14:40.863Z,30.47
2022-09-14T19:17:30.550Z,30.33
2022-09-14T19:20:12.833Z,30.49
2022-09-14T19:23:04.188Z,30.47
2022-09-14T19:25:46.494Z,30.39
2022-09-14T19:28:35.015Z,30.33
2022-09-14T19:31:32.938Z,30.36
2022-09-14T19:34:28.068Z,30.36
2022-09-14T19:37:17.080Z,30.31
2022-09-14T19:40:06.064Z,30.19
2022-09-14T19:42:48.327Z,30.25
2022-09-14T19:45:37.034Z,30.13
2022-09-14T19:48:19.767Z,30.36
2022-09-14T19:51:12.017Z,30.42
2022-09-14T19:54:03.401Z,30.24
2022-09-14T19:56:46.120Z,30.27
2022-09-14T19:59:35.516Z,30.31
2022-09-14T20:02:20.247Z,30.30
2022-09-14T20:05:02.559Z,30.24
2022-09-14T20:07:51.115Z,30.19
2022-09-14T20:10:40.151Z,30.19
2022-09-14T20:13:22.372Z,30.16
2022-09-14T20:16:25.697Z,30.24
2022-09-14T20:19:15.379Z,30.18
2022-09-14T20:22:01.823Z,30.05
2022-09-14T20:24:52.085Z,30.10
2022-09-14T20:27:34.391Z,30.06
2022-09-14T20:30:22.942Z,29.92
2022-09-14T20:33:17.924Z,30.15
2022-09-14T20:36:12.974Z,29.95
2022-09-14T20:38:58.505Z,29.64
2022-09-14T20:41:47.070Z,29.99
2022-09-14T20:44:36.994Z,30.09
2022-09-14T20:47:19.858Z,30.24
2022-09-14T20:50:08.998Z,30.20
2022-09-14T20:52:51.278Z,29.92
2022-09-14T20:55:40.030Z,30.02
2022-09-14T20:58:22.380Z,29.86
2022-09-14T21:01:32.014Z,29.98
2022-09-14T21:04:17.278Z,29.85
2022-09-14T21:07:08.997Z,29.83
2022-09-14T21:09:58.102Z,29.76
2022-09-14T21:12:40.344Z,29.78
2022-09-14T21:15:29.122Z,29.85
2022-09-14T21:18:11.362Z,29.81
2022-09-14T21:21:02.824Z,29.58
2022-09-14T21:23:45.459Z,29.61
2022-09-14T21:26:36.723Z,29.76
2022-09-14T21:29:34.039Z,29.57
2022-09-14T21:32:16.243Z,29.73
2022-09-14T21:35:12.049Z,29.66
2022-09-14T21:38:00.341Z,29.65
2022-09-14T21:40:44.968Z,29.55
2022-09-14T21:43:33.939Z,29.52
2022-09-14T21:46:17.392Z,29.52
2022-09-14T21:49:05.963Z,29.52
2022-09-14T21:51:48.594Z,29.47
2022-09-14T21:54:37.051Z,29.43
2022-09-14T21:57:19.385Z,29.37
2022-09-14T22:00:08.047Z,29.24
2022-09-14T22:02:50.380Z,29.37
2022-09-14T22:05:38.946Z,29.23
2022-09-14T22:08:27.935Z,29.16
2022-09-14T22:11:23.053Z,29.17
2022-09-14T22:14:20.962Z,29.30
2022-09-14T22:17:09.344Z,29.20
2022-09-14T22:19:52.049Z,29.17
2022-09-14T22:22:41.021Z,29.17
2022-09-14T22:25:26.048Z,29.17
2022-09-14T22:28:15.104Z,29.23
2022-09-14T22:31:02.463Z,29.17
2022-09-14T22:33:51.221Z,29.20
2022-09-14T22:36:48.054Z,29.05
2022-09-14T22:39:36.951Z,28.94
2022-09-14T22:42:26.021Z,28.82
2022-09-14T22:45:08.581Z,29.10
2022-09-14T22:47:57.039Z,29.03
2022-09-14T22:50:45.371Z,28.97
2022-09-14T22:53:29.040Z,28.95
2022-09-14T22:56:18.347Z,29.07
2022-09-14T22:59:00.950Z,29.01
2022-09-14T23:01:50.158Z,29.03
2022-09-14T23:04:32.873Z,29.14
2022-09-14T23:07:22.048Z,29.16
2022-09-14T23:10:10.959Z,29.03
2022-09-14T23:13:00.051Z,29.02
2022-09-14T23:15:47.241Z,29.08
2022-09-14T23:18:36.029Z,29.01
2022-09-14T23:21:26.017Z,29.08
2022-09-14T23:24:15.046Z,29.00
2022-09-14T23:26:57.372Z,29.03
2022-09-14T23:29:45.957Z,28.85
2022-09-14T23:32:34.946Z,28.97
2022-09-14T23:35:29.966Z,28.91
2022-09-14T23:38:12.229Z,28.84
2022-09-14T23:41:00.926Z,28.72
2022-09-14T23:43:43.734Z,28.90
2022-09-14T23:46:33.932Z,28.69
2022-09-14T23:49:24.017Z,28.89
2022-09-14T23:52:05.929Z,28.88
2022-09-14T23:54:54.436Z,28.40
2022-09-14T23:57:37.090Z,28.59
